Time;durP1;ratioP1;P1;durP2;ratioP2;P2;SDS_P1;SDS_P2;PMS_P1;PMS_P2;Temp;Humidity;BMP_temperature;BMP_pressure;BME280_temperature;BME280_humidity;BME280_pressure;Samples;Min_cycle;Max_cycle;Signal;HPM_P1;HPM_P2
2022/01/24 00:02:23;;;;;;;11.05;6.63;;;;;;;2.73;82.01;101110.84;4988245;28;20413;-60
2022/01/24 00:04:50;;;;;;;11.52;7.18;;;;;;;2.74;82.21;101109.84;4986665;28;20023;-60
2022/01/24 00:07:19;;;;;;;12.55;7.07;;;;;;;2.80;82.66;101111.09;4989923;28;20482;-60
2022/01/24 00:09:44;;;;;;;16.73;7.00;;;;;;;2.80;83.24;101114.59;4988313;28;20100;-60
2022/01/24 00:12:20;;;;;;;11.98;6.80;;;;;;;2.66;82.44;101106.28;4995905;28;20504;-60
2022/01/24 00:17:29;;;;;;;11.88;6.85;;;;;;;2.68;82.81;101097.22;4994961;28;20042;-60
2022/01/24 00:28:04;;;;;;;14.75;7.05;;;;;;;2.83;83.32;101102.03;4991681;28;20393;-60
2022/01/24 00:30:29;;;;;;;11.90;6.95;;;;;;;2.71;83.70;101099.56;4991737;28;20046;-60
2022/01/24 00:32:55;;;;;;;13.45;7.85;;;;;;;2.70;83.46;101099.72;4994980;28;20053;-60
2022/01/24 00:35:20;;;;;;;13.90;7.53;;;;;;;2.70;83.04;101103.19;5009270;28;20385;-60
2022/01/24 00:37:47;;;;;;;15.60;7.60;;;;;;;2.70;83.39;101097.91;4992166;28;20035;-61
2022/01/24 00:40:13;;;;;;;13.43;7.50;;;;;;;2.87;84.13;101098.09;4981548;28;20038;-60
2022/01/24 00:42:57;;;;;;;12.15;6.72;;;;;;;2.74;83.60;101093.97;4987025;28;20287;-60
2022/01/24 00:55:52;;;;;;;16.75;8.57;;;;;;;2.69;83.73;101101.50;4990147;28;20081;-60
2022/01/24 00:58:18;;;;;;;11.98;8.10;;;;;;;2.66;83.61;101104.44;4994621;28;20038;-60
2022/01/24 01:00:43;;;;;;;14.68;8.02;;;;;;;2.69;82.97;101104.16;4998748;28;20086;-60
2022/01/24 01:03:08;;;;;;;12.75;8.15;;;;;;;2.67;83.13;101106.16;4995849;28;20032;-60
2022/01/24 01:18:43;;;;;;;11.82;7.90;;;;;;;2.74;83.88;101109.84;4991245;28;20503;-60
2022/01/24 01:21:11;;;;;;;12.77;7.72;;;;;;;2.68;84.27;101115.75;5007068;28;20078;-60
2022/01/24 01:23:46;;;;;;;15.10;7.95;;;;;;;2.64;84.31;101103.75;4989892;28;20034;-60
2022/01/24 01:26:21;;;;;;;13.18;7.82;;;;;;;2.55;84.61;101099.34;4993909;28;20447;-61
2022/01/24 01:28:50;;;;;;;13.73;8.32;;;;;;;2.57;85.65;101110.59;4992447;28;20026;-60
2022/01/24 01:32:01;;;;;;;12.38;7.70;;;;;;;2.57;84.64;101107.97;4992703;28;20492;-60
2022/01/24 01:52:48;;;;;;;8.45;5.57;;;;;;;2.44;84.14;101100.34;4983945;28;20061;-60
2022/01/24 01:55:26;;;;;;;10.45;6.55;;;;;;;2.47;84.62;101107.16;4965878;28;20049;-60
2022/01/24 01:57:51;;;;;;;9.13;6.35;;;;;;;2.41;85.06;101102.47;4991183;28;20061;-60
2022/01/24 02:00:16;;;;;;;11.98;8.13;;;;;;;2.44;86.35;101102.16;4990214;28;20038;-60
2022/01/24 02:02:42;;;;;;;8.55;5.60;;;;;;;2.38;84.90;101095.63;4989624;28;20038;-60
2022/01/24 02:05:08;;;;;;;9.93;6.45;;;;;;;2.34;85.42;101097.72;4983127;28;20039;-60
2022/01/24 02:07:36;;;;;;;7.68;4.82;;;;;;;2.35;85.00;101094.13;4988457;28;20085;-60
2022/01/24 02:10:02;;;;;;;8.38;5.60;;;;;;;2.34;84.79;101092.44;4986213;28;20310;-61
2022/01/24 02:12:28;;;;;;;9.15;5.50;;;;;;;2.42;85.35;101082.94;4989344;28;20084;-61
2022/01/24 02:14:58;;;;;;;10.20;5.95;;;;;;;2.33;85.56;101080.19;4985184;28;20034;-60
2022/01/24 02:17:36;;;;;;;9.20;6.13;;;;;;;2.41;85.93;101091.88;4987006;28;20034;-60
2022/01/24 02:20:13;;;;;;;9.80;6.97;;;;;;;2.38;85.86;101080.59;4987606;28;20767;-60
2022/01/24 02:25:15;;;;;;;9.93;6.97;;;;;;;2.38;86.01;101075.28;4984570;28;20038;-60
2022/01/24 02:27:46;;;;;;;9.18;6.35;;;;;;;2.32;85.63;101070.59;4990098;28;20034;-60
2022/01/24 02:30:43;;;;;;;7.28;4.90;;;;;;;2.30;84.95;101069.88;4996123;28;20117;-60
2022/01/24 02:33:10;;;;;;;9.10;5.60;;;;;;;2.27;85.07;101071.97;4995516;28;20045;-60
2022/01/24 02:35:35;;;;;;;6.90;5.25;;;;;;;2.24;84.83;101067.81;4986714;28;20057;-60
2022/01/24 02:38:05;;;;;;;8.82;5.68;;;;;;;2.20;84.94;101073.53;5007058;28;20054;-60
2022/01/24 02:40:30;;;;;;;7.10;5.05;;;;;;;2.16;84.91;101059.75;4981374;28;20054;-60
2022/01/24 02:48:28;;;;;;;8.90;6.53;;;;;;;1.88;86.23;101064.97;4986894;28;20041;-60
2022/01/24 02:53:43;;;;;;;12.00;6.45;;;;;;;1.85;87.98;101054.66;4989198;28;20443;-60
2022/01/24 02:56:08;;;;;;;9.90;6.55;;;;;;;1.69;86.83;101049.94;5001980;28;20452;-60
2022/01/24 02:58:34;;;;;;;9.90;6.38;;;;;;;1.59;87.44;101046.47;4992567;28;20045;-61
2022/01/24 03:01:00;;;;;;;9.98;6.32;;;;;;;1.55;87.98;101046.88;4983710;28;20097;-60
2022/01/24 03:03:25;;;;;;;10.48;6.40;;;;;;;1.56;88.83;101053.84;4991215;28;20048;-60
2022/01/24 03:05:50;;;;;;;9.00;5.53;;;;;;;1.11;88.93;101049.09;4991678;28;20046;-60
2022/01/24 03:08:16;;;;;;;10.18;5.78;;;;;;;0.84;89.86;101048.72;4990535;28;20038;-60
2022/01/24 03:10:45;;;;;;;11.00;7.38;;;;;;;1.12;90.91;101048.94;4994193;28;20047;-60
2022/01/24 03:15:42;;;;;;;13.93;8.68;;;;;;;1.40;91.44;101049.97;4992816;28;20085;-60
2022/01/24 03:18:07;;;;;;;13.15;8.88;;;;;;;1.47;91.38;101042.28;4965459;28;20042;-60
2022/01/24 03:20:33;;;;;;;16.33;9.60;;;;;;;1.21;90.41;101044.66;4988117;28;20047;-60
2022/01/24 03:22:58;;;;;;;14.77;8.73;;;;;;;1.04;90.60;101033.75;4988338;28;20041;-60
2022/01/24 03:25:24;;;;;;;15.23;8.82;;;;;;;1.10;90.83;101026.25;4991072;28;20080;-60
2022/01/24 03:27:49;;;;;;;13.32;9.38;;;;;;;1.06;90.87;101031.84;4980082;28;20062;-60
2022/01/24 03:30:15;;;;;;;13.70;7.35;;;;;;;1.01;90.42;101026.13;4986471;28;20046;-60
2022/01/24 03:32:40;;;;;;;13.35;8.98;;;;;;;1.05;89.72;101022.25;4985986;28;20034;-60
2022/01/24 03:35:07;;;;;;;11.07;7.13;;;;;;;0.99;89.21;101017.50;4991413;28;20049;-60
2022/01/24 03:37:36;;;;;;;14.65;8.38;;;;;;;0.85;90.06;101018.75;4988290;28;20519;-60
2022/01/24 03:40:02;;;;;;;14.63;8.57;;;;;;;0.79;90.88;101010.50;4989348;28;20034;-61
2022/01/24 03:42:28;;;;;;;11.32;7.78;;;;;;;0.96;90.80;101024.88;4993774;28;20160;-60
2022/01/24 03:44:58;;;;;;;13.70;8.15;;;;;;;0.90;92.11;101010.41;4987804;28;20033;-60
2022/01/24 03:48:06;;;;;;;13.20;8.98;;;;;;;1.00;91.79;101019.19;4994419;28;20053;-60
2022/01/24 03:50:17;;;;;;;14.95;8.75;;;;;;;1.07;90.62;101017.66;4980230;28;20480;-60
2022/01/24 03:52:43;;;;;;;13.35;8.27;;;;;;;1.20;91.17;101021.81;4987682;28;20058;-60
2022/01/24 03:55:09;;;;;;;12.32;7.90;;;;;;;1.21;89.50;101011.13;4993658;28;20373;-60
2022/01/24 03:57:34;;;;;;;13.63;8.23;;;;;;;1.14;90.08;101023.22;5005554;28;20117;-60
2022/01/24 04:00:00;;;;;;;11.70;7.28;;;;;;;1.16;89.88;101012.53;4991395;28;20042;-60
2022/01/24 04:02:26;;;;;;;13.07;6.13;;;;;;;1.01;90.03;101007.63;4989852;28;20555;-60
2022/01/24 04:04:52;;;;;;;8.88;5.50;;;;;;;0.96;90.23;101004.56;4987064;28;20037;-60
2022/01/24 04:07:17;;;;;;;10.23;6.47;;;;;;;0.84;90.84;101005.66;4989717;28;20046;-60
2022/01/24 04:09:43;;;;;;;12.10;7.15;;;;;;;0.76;92.21;101008.16;4985965;28;20481;-60
2022/01/24 04:12:10;;;;;;;13.48;6.60;;;;;;;0.62;92.72;101007.56;4990271;28;20039;-60
2022/01/24 04:22:08;;;;;;;12.73;7.55;;;;;;;0.83;95.47;101004.00;4989807;28;20112;-60
2022/01/24 04:24:34;;;;;;;12.43;7.63;;;;;;;0.83;95.34;100996.91;4984071;28;20030;-60
2022/01/24 04:26:59;;;;;;;12.65;7.68;;;;;;;0.42;91.84;101005.81;4991196;28;20050;-60
2022/01/24 04:29:24;;;;;;;12.80;8.48;;;;;;;0.57;93.25;101004.47;4986700;28;20026;-60
2022/01/24 04:31:50;;;;;;;12.00;7.38;;;;;;;0.58;93.42;101003.53;4988309;28;20105;-60
2022/01/24 04:34:15;;;;;;;11.95;6.97;;;;;;;0.62;93.22;101007.56;4995032;28;20040;-60
2022/01/24 04:36:41;;;;;;;13.00;7.28;;;;;;;0.58;92.62;101008.78;4989358;28;20034;-60
2022/01/24 04:39:06;;;;;;;14.98;7.32;;;;;;;0.70;93.65;101008.69;4989021;28;20041;-60
2022/01/24 04:41:36;;;;;;;13.18;7.18;;;;;;;0.45;91.92;101005.56;4981322;28;20037;-59
2022/01/24 04:44:18;;;;;;;18.35;7.55;;;;;;;0.58;93.45;101003.53;4990081;28;20045;-60
2022/01/24 04:47:17;;;;;;;12.60;6.70;;;;;;;0.40;93.59;101008.59;4981980;28;20045;-61
2022/01/24 04:55:02;;;;;;;9.80;6.57;;;;;;;0.14;93.02;100996.81;5001046;28;20542;-60
2022/01/24 04:57:29;;;;;;;10.30;6.60;;;;;;;0.24;93.02;100991.59;4991628;28;20025;-60
2022/01/24 04:59:57;;;;;;;11.73;7.43;;;;;;;0.33;92.72;101001.34;4993969;28;20037;-60
2022/01/24 05:02:23;;;;;;;12.13;7.53;;;;;;;0.41;94.18;100998.88;4994135;28;20065;-60
2022/01/24 05:04:48;;;;;;;12.88;6.78;;;;;;;0.49;94.65;101006.94;4993776;28;20420;-60
2022/01/24 05:07:14;;;;;;;11.75;6.53;;;;;;;0.21;93.80;101006.69;5003185;28;20045;-60
2022/01/24 05:09:44;;;;;;;14.05;7.15;;;;;;;0.15;95.36;101009.88;4986469;28;20117;-60
2022/01/24 05:25:34;;;;;;;15.60;9.73;;;;;;;-0.59;96.14;101024.91;4986012;28;20061;-60
2022/01/24 05:27:59;;;;;;;17.65;9.25;;;;;;;-0.62;97.09;101030.41;4990547;28;20042;-60
2022/01/24 05:30:24;;;;;;;20.90;11.60;;;;;;;-0.66;97.12;101028.03;4986913;28;20049;-60
2022/01/24 05:32:50;;;;;;;17.75;10.93;;;;;;;-0.77;97.54;101025.47;4987261;28;20048;-61
2022/01/24 05:35:15;;;;;;;22.80;11.70;;;;;;;-0.84;97.20;101024.28;4993099;28;20034;-60
2022/01/24 05:37:41;;;;;;;18.95;10.80;;;;;;;-0.98;97.12;101020.13;4985800;28;20134;-60
2022/01/24 05:40:07;;;;;;;17.15;9.05;;;;;;;-0.91;98.63;101026.56;4984910;28;20502;-61
2022/01/24 05:42:32;;;;;;;14.30;8.13;;;;;;;-0.53;100.00;101025.22;4986259;28;20033;-60
2022/01/24 05:45:00;;;;;;;16.35;9.63;;;;;;;-0.55;99.82;101027.19;4985250;28;20038;-60
2022/01/24 05:47:26;;;;;;;22.77;12.18;;;;;;;-0.73;98.80;101028.66;4990273;28;20100;-60
2022/01/24 05:49:51;;;;;;;18.75;10.82;;;;;;;-0.81;98.88;101026.66;4988851;28;20038;-60
2022/01/24 05:52:17;;;;;;;20.55;11.38;;;;;;;-0.82;99.50;101030.28;4971017;28;20053;-60
2022/01/24 05:54:42;;;;;;;22.48;11.90;;;;;;;-0.89;99.30;101029.09;4965379;28;20042;-60
2022/01/24 05:57:08;;;;;;;23.00;10.30;;;;;;;-0.19;100.00;101034.78;5001208;28;20548;-60
2022/01/24 05:59:33;;;;;;;18.33;9.10;;;;;;;-0.41;100.00;101035.72;4967780;28;20039;-60
2022/01/24 06:01:59;;;;;;;19.63;11.63;;;;;;;-0.61;99.95;101030.31;4976874;28;20086;-60
2022/01/24 06:04:24;;;;;;;16.95;9.68;;;;;;;-0.70;99.87;101028.41;4970086;28;20042;-60
2022/01/24 06:06:49;;;;;;;21.08;11.50;;;;;;;-0.77;100.00;101030.72;4976289;28;20043;-61
2022/01/24 06:09:18;;;;;;;14.63;8.23;;;;;;;-0.83;99.68;101033.84;4968937;28;20058;-60
2022/01/24 06:11:44;;;;;;;15.70;9.38;;;;;;;-0.88;99.40;101030.75;4973271;28;20046;-60
2022/01/24 06:14:10;;;;;;;18.45;10.40;;;;;;;-0.84;100.00;101031.34;4974807;28;20030;-61
2022/01/24 06:16:35;;;;;;;23.35;12.68;;;;;;;-1.02;98.88;101033.66;4968470;28;20122;-60
2022/01/24 06:19:04;;;;;;;24.60;13.05;;;;;;;-1.09;99.35;101023.63;4977617;28;20532;-60
2022/01/24 06:21:29;;;;;;;14.15;7.63;;;;;;;-0.87;100.00;101032.44;4969284;28;20042;-60
2022/01/24 06:23:56;;;;;;;14.60;7.80;;;;;;;-0.80;100.00;101030.13;4969043;28;20034;-60
2022/01/24 06:26:21;;;;;;;13.63;7.88;;;;;;;-0.88;99.56;101036.00;4968758;28;20045;-61
2022/01/24 06:28:47;;;;;;;11.13;7.25;;;;;;;-0.80;99.22;101035.38;4972005;28;20385;-60
2022/01/24 06:31:12;;;;;;;10.98;6.40;;;;;;;-0.78;99.49;101031.66;4977592;28;20081;-60
2022/01/24 06:33:38;;;;;;;13.43;7.63;;;;;;;-0.76;100.00;101029.75;4992777;28;20030;-60
2022/01/24 06:36:03;;;;;;;14.02;7.72;;;;;;;-0.72;99.04;101028.56;4977638;28;20122;-60
2022/01/24 06:38:29;;;;;;;14.48;7.88;;;;;;;-0.67;97.34;101042.19;4984136;28;20049;-60
2022/01/24 06:40:55;;;;;;;13.23;7.38;;;;;;;-0.66;98.50;101041.22;4984081;28;20145;-60
2022/01/24 06:43:20;;;;;;;16.17;9.70;;;;;;;-0.78;99.99;101039.56;4988793;28;20259;-60
2022/01/24 06:45:46;;;;;;;15.95;7.93;;;;;;;-0.80;99.58;101040.66;4993123;28;20042;-60
2022/01/24 06:48:11;;;;;;;17.17;8.18;;;;;;;-0.68;99.84;101043.13;4985884;28;20088;-61
2022/01/24 06:50:36;;;;;;;15.70;8.98;;;;;;;-0.48;98.94;101038.03;4985288;28;20065;-60
2022/01/24 06:53:02;;;;;;;19.40;8.75;;;;;;;-0.29;97.60;101048.72;4985624;28;20034;-60
2022/01/24 06:55:27;;;;;;;13.70;7.85;;;;;;;-0.08;97.31;101050.53;4994131;28;20483;-60
2022/01/24 06:57:53;;;;;;;12.07;6.88;;;;;;;-0.43;94.58;101057.75;4984739;28;20447;-60
2022/01/24 07:00:22;;;;;;;14.68;7.57;;;;;;;-0.58;97.86;101058.19;4981287;28;20030;-60
2022/01/24 07:02:48;;;;;;;15.60;8.70;;;;;;;-0.97;95.28;101055.22;4992994;28;20030;-59
2022/01/24 07:05:14;;;;;;;14.43;7.25;;;;;;;-0.59;100.00;101052.09;4986790;28;20030;-60
2022/01/24 07:07:39;;;;;;;14.10;7.80;;;;;;;-0.22;100.00;101049.06;4988156;28;20494;-59
2022/01/24 07:10:05;;;;;;;12.65;7.68;;;;;;;-0.22;99.88;101055.16;4986298;28;20034;-61
2022/01/24 07:12:30;;;;;;;14.25;7.78;;;;;;;0.15;100.00;101052.06;4987310;28;20026;-60
2022/01/24 07:15:03;;;;;;;12.55;7.57;;;;;;;-0.43;96.59;101046.38;4983336;28;20749;-60
2022/01/24 07:17:57;;;;;;;13.20;7.05;;;;;;;-0.61;97.75;101051.38;4984986;28;20500;-60
2022/01/24 07:20:16;;;;;;;23.55;11.70;;;;;;;-0.77;97.46;101054.44;4991139;28;20558;-60
2022/01/24 07:22:42;;;;;;;26.73;12.50;;;;;;;-0.99;96.83;101059.75;4989384;28;20468;-60
2022/01/24 07:25:08;;;;;;;22.50;11.52;;;;;;;-1.08;97.53;101062.13;4985743;28;20051;-60
2022/01/24 07:27:33;;;;;;;28.08;14.80;;;;;;;-1.18;97.49;101057.72;4984472;28;20503;-59
2022/01/24 07:29:58;;;;;;;30.73;14.80;;;;;;;-1.34;96.98;101060.75;4981372;28;20128;-60
2022/01/24 07:32:24;;;;;;;36.80;15.65;;;;;;;-1.27;97.88;101059.31;4979627;28;20049;-59
2022/01/24 07:34:50;;;;;;;28.25;14.60;;;;;;;-1.32;97.30;101064.09;4983086;28;20029;-59
2022/01/24 07:37:16;;;;;;;27.55;14.50;;;;;;;-1.34;97.55;101066.00;4983122;28;20253;-61
2022/01/24 07:39:41;;;;;;;30.50;13.88;;;;;;;-1.43;97.33;101056.19;4981606;28;20435;-61
2022/01/24 07:42:15;;;;;;;27.73;13.18;;;;;;;-1.31;97.61;101061.34;4984991;28;20073;-60
2022/01/24 07:44:41;;;;;;;29.88;15.98;;;;;;;-1.10;98.43;101058.81;4970125;28;20061;-60
2022/01/24 07:47:07;;;;;;;37.40;17.38;;;;;;;-1.02;99.52;101052.94;4986983;28;20451;-60
2022/01/24 07:49:32;;;;;;;32.50;15.93;;;;;;;-1.02;97.82;101055.56;4986194;28;20030;-60
2022/01/24 07:51:58;;;;;;;40.25;18.63;;;;;;;-0.78;98.30;101058.00;4982815;28;20263;-60
2022/01/24 07:54:24;;;;;;;44.17;21.25;;;;;;;-0.79;96.03;101055.50;4974896;28;20705;-60
2022/01/24 07:56:49;;;;;;;50.30;22.80;;;;;;;-0.52;97.12;101055.06;4990313;28;20045;-59
2022/01/24 07:59:15;;;;;;;27.20;13.00;;;;;;;-0.52;95.74;101065.59;4984884;28;20034;-59
2022/01/24 08:01:41;;;;;;;24.58;14.82;;;;;;;-0.45;95.99;101070.25;4991409;28;20042;-61
2022/01/24 08:04:07;;;;;;;27.33;14.52;;;;;;;-0.48;94.40;101067.84;4987902;28;20131;-61
2022/01/24 08:06:33;;;;;;;35.47;15.30;;;;;;;-0.25;96.90;101071.22;4991492;28;20752;-61
2022/01/24 08:08:59;;;;;;;32.20;17.13;;;;;;;-0.08;95.40;101076.88;4986802;28;20085;-60
2022/01/24 08:11:24;;;;;;;25.98;14.43;;;;;;;-0.50;93.69;101074.19;4990102;28;20628;-59
2022/01/24 08:13:51;;;;;;;32.67;18.08;;;;;;;-0.28;95.73;101075.91;4987416;28;20037;-59
2022/01/24 08:16:17;;;;;;;32.83;17.10;;;;;;;0.05;96.42;101076.69;4980297;28;20034;-60
2022/01/24 08:18:43;;;;;;;31.63;17.38;;;;;;;-0.10;94.12;101076.16;4984672;28;20037;-61
2022/01/24 08:21:08;;;;;;;29.45;17.90;;;;;;;-0.05;93.88;101082.75;4992444;28;20411;-60
2022/01/24 08:23:34;;;;;;;51.85;25.20;;;;;;;0.04;94.24;101083.75;4988678;28;20041;-60
2022/01/24 08:25:59;;;;;;;53.35;26.33;;;;;;;0.12;94.65;101083.13;4981938;28;20373;-59
2022/01/24 08:28:25;;;;;;;65.55;31.38;;;;;;;0.12;93.66;101078.66;4986135;28;20758;-60
2022/01/24 08:30:52;;;;;;;41.80;21.55;;;;;;;0.17;93.67;101086.19;5005124;28;20070;-60
2022/01/24 08:33:17;;;;;;;34.03;18.25;;;;;;;0.23;94.42;101084.88;4987711;28;20038;-60
2022/01/24 08:35:43;;;;;;;40.13;18.80;;;;;;;0.36;93.56;101085.50;4988575;28;20643;-59
2022/01/24 08:38:08;;;;;;;37.67;18.83;;;;;;;0.30;93.57;101083.34;4994709;28;20041;-60
2022/01/24 08:40:34;;;;;;;34.80;18.77;;;;;;;0.56;95.18;101091.69;4983117;28;20054;-60
2022/01/24 08:43:06;;;;;;;38.15;19.42;;;;;;;1.02;96.97;101095.59;4995689;28;20038;-60
2022/01/24 08:45:50;;;;;;;33.67;18.58;;;;;;;1.42;97.02;101089.44;4990381;28;20078;-59
2022/01/24 08:48:20;;;;;;;40.17;17.20;;;;;;;0.70;91.53;101093.13;4988154;28;20912;-59
2022/01/24 08:50:47;;;;;;;31.33;18.48;;;;;;;0.78;92.49;101091.50;4989965;28;20074;-60
2022/01/24 08:53:12;;;;;;;36.55;19.05;;;;;;;0.82;92.27;101082.38;4990162;28;20033;-60
2022/01/24 08:55:38;;;;;;;40.15;21.48;;;;;;;0.61;91.77;101089.50;4989591;28;20096;-59
2022/01/24 08:58:05;;;;;;;43.92;22.23;;;;;;;0.57;91.80;101088.91;4989362;28;20065;-60
2022/01/24 09:00:30;;;;;;;41.17;21.83;;;;;;;0.51;92.46;101094.72;4987460;28;20302;-60
2022/01/24 09:02:56;;;;;;;45.80;23.17;;;;;;;0.70;93.07;101087.84;4990249;28;20045;-60
2022/01/24 09:05:22;;;;;;;44.70;23.42;;;;;;;0.84;93.04;101084.84;4993030;28;20052;-60
2022/01/24 09:07:48;;;;;;;47.95;26.17;;;;;;;0.87;92.51;101084.59;4990494;28;20574;-60
2022/01/24 09:10:13;;;;;;;63.63;31.40;;;;;;;0.95;92.82;101086.56;4991661;28;20029;-60
2022/01/24 09:12:39;;;;;;;53.25;27.70;;;;;;;1.07;92.95;101080.19;4995414;28;20034;-60
2022/01/24 09:15:05;;;;;;;58.67;29.48;;;;;;;1.19;91.67;101084.41;4983486;28;20034;-60
2022/01/24 09:17:30;;;;;;;47.15;25.83;;;;;;;1.33;92.08;101090.28;4989402;28;20026;-59
2022/01/24 09:19:56;;;;;;;43.97;24.13;;;;;;;1.44;91.80;101090.13;4990579;28;20042;-61
2022/01/24 09:22:21;;;;;;;52.35;25.13;;;;;;;1.61;90.95;101083.34;4989537;28;20053;-60
2022/01/24 09:24:47;;;;;;;47.60;25.48;;;;;;;1.60;91.45;101086.94;4988945;28;20081;-61
2022/01/24 09:27:12;;;;;;;44.30;24.35;;;;;;;1.53;91.47;101088.50;4981425;28;20042;-60
2022/01/24 09:29:38;;;;;;;41.95;21.13;;;;;;;1.65;90.71;101092.66;4985815;28;20038;-60
2022/01/24 09:32:04;;;;;;;40.67;20.33;;;;;;;1.75;91.28;101079.44;4987880;28;20034;-60
2022/01/24 09:34:30;;;;;;;37.80;20.88;;;;;;;1.91;90.75;101085.81;4993717;28;20026;-60
2022/01/24 09:36:55;;;;;;;41.30;21.20;;;;;;;1.72;89.54;101085.81;4989796;28;20038;-60
2022/01/24 09:39:21;;;;;;;28.25;15.13;;;;;;;1.70;90.65;101087.81;4992465;28;20105;-60
2022/01/24 09:41:46;;;;;;;34.67;17.88;;;;;;;1.66;90.18;101083.75;4987579;28;20062;-60
2022/01/24 09:44:12;;;;;;;31.40;16.60;;;;;;;1.69;91.09;101094.88;4987610;28;20061;-60
2022/01/24 09:46:37;;;;;;;21.40;12.30;;;;;;;1.68;89.35;101089.75;4983933;28;20042;-60
2022/01/24 09:49:04;;;;;;;41.70;19.52;;;;;;;1.84;94.16;101090.00;4991812;28;20033;-60
2022/01/24 09:51:29;;;;;;;18.65;10.40;;;;;;;1.92;90.44;101092.81;4980794;28;20045;-60
2022/01/24 09:53:55;;;;;;;18.50;10.55;;;;;;;1.93;92.04;101096.28;4986100;28;20034;-60
2022/01/24 09:56:21;;;;;;;17.02;9.70;;;;;;;1.97;90.29;101094.16;4987798;28;20038;-60
2022/01/24 09:58:46;;;;;;;13.88;8.20;;;;;;;1.88;90.26;101093.22;4993773;28;20030;-60
2022/01/24 10:01:13;;;;;;;12.48;6.45;;;;;;;1.79;89.79;101096.69;4998948;28;20038;-60
2022/01/24 10:03:39;;;;;;;16.30;9.27;;;;;;;1.82;90.74;101104.34;4981700;28;20029;-60
2022/01/24 10:06:04;;;;;;;9.60;8.10;;;;;;;1.79;90.45;101101.97;4982023;28;20038;-60
2022/01/24 10:08:30;;;;;;;9.52;7.57;;;;;;;1.79;90.56;101101.97;4985383;28;20492;-60
2022/01/24 10:10:59;;;;;;;12.00;7.53;;;;;;;1.88;90.98;101104.63;4984851;28;20051;-60
2022/01/24 10:19:01;;;;;;;10.00;6.85;;;;;;;1.88;90.95;101101.16;4982481;28;20033;-60
2022/01/24 10:21:26;;;;;;;11.57;6.75;;;;;;;1.82;90.25;101105.19;4996096;28;20562;-60
2022/01/24 10:23:52;;;;;;;9.63;7.28;;;;;;;1.82;90.88;101102.56;4988288;28;20038;-60
2022/01/24 10:26:18;;;;;;;14.57;8.80;;;;;;;1.95;90.32;101107.56;4988852;28;20053;-60
2022/01/24 10:28:44;;;;;;;11.60;8.25;;;;;;;1.94;90.16;101106.69;4988013;28;20034;-61
2022/01/24 10:31:18;;;;;;;14.18;8.45;;;;;;;1.98;90.93;101109.06;4991037;28;20306;-61
2022/01/24 10:34:22;;;;;;;9.93;6.57;;;;;;;1.90;90.28;101107.97;4982350;28;20026;-61
2022/01/24 10:36:51;;;;;;;10.65;7.53;;;;;;;1.84;90.38;101097.94;4992567;28;20674;-60
2022/01/24 10:39:32;;;;;;;12.23;7.25;;;;;;;1.93;90.52;101098.91;4987618;28;20125;-61
2022/01/24 10:42:25;;;;;;;10.73;7.88;;;;;;;1.98;89.41;101096.69;4984155;28;20058;-61
2022/01/24 10:44:51;;;;;;;13.27;6.88;;;;;;;1.98;90.02;101090.56;4987721;28;20368;-60
2022/01/24 10:47:19;;;;;;;13.80;8.05;;;;;;;2.08;89.78;101086.94;4994305;28;20677;-61
2022/01/24 10:49:46;;;;;;;8.18;5.72;;;;;;;2.02;89.60;101097.22;4994575;28;20112;-60
2022/01/24 10:52:13;;;;;;;14.13;8.30;;;;;;;2.16;90.60;101088.84;4988071;28;20503;-60
2022/01/24 10:54:39;;;;;;;11.85;8.85;;;;;;;2.16;90.27;101086.22;4991901;28;20030;-61
2022/01/24 10:57:05;;;;;;;9.35;7.05;;;;;;;2.14;89.13;101088.16;4990653;28;20034;-60
2022/01/24 10:59:30;;;;;;;12.32;7.55;;;;;;;2.28;89.26;101087.72;4991689;28;20813;-61
2022/01/24 11:01:57;;;;;;;10.32;7.40;;;;;;;2.21;89.48;101083.97;4988658;28;20374;-61
2022/01/24 11:04:24;;;;;;;14.90;7.72;;;;;;;2.29;90.17;101083.25;4990810;28;20034;-59
2022/01/24 11:06:51;;;;;;;15.10;6.68;;;;;;;2.21;89.34;101086.63;4995160;28;20045;-60
2022/01/24 11:09:24;;;;;;;11.23;8.38;;;;;;;2.22;89.26;101077.72;4989860;28;20818;-59
2022/01/24 11:11:54;;;;;;;9.52;6.97;;;;;;;2.30;88.62;101090.22;5008942;28;20038;-59
2022/01/24 11:14:21;;;;;;;10.85;6.45;;;;;;;2.31;88.81;101071.56;4988580;28;20026;-59
2022/01/24 11:16:49;;;;;;;10.02;7.03;;;;;;;2.44;88.70;101075.69;4979781;28;20042;-59
2022/01/24 11:19:21;;;;;;;9.82;6.93;;;;;;;2.29;89.15;101078.78;4988493;28;20413;-59
2022/01/24 11:21:46;;;;;;;8.85;6.30;;;;;;;2.31;89.32;101079.50;4986927;28;20129;-59
2022/01/24 11:24:17;;;;;;;11.18;7.13;;;;;;;2.60;88.92;101075.94;4959602;28;20022;-59
2022/01/24 11:26:43;;;;;;;9.68;6.65;;;;;;;2.31;88.20;101060.97;4978145;28;20030;-60
2022/01/24 11:29:08;;;;;;;10.38;6.25;;;;;;;2.42;88.02;101059.13;4985520;28;20041;-59
2022/01/24 11:31:55;;;;;;;11.85;7.30;;;;;;;2.64;87.77;101060.56;4980466;28;20037;-59
2022/01/24 11:34:30;;;;;;;9.98;7.35;;;;;;;2.64;87.38;101061.41;4981155;28;20116;-59
2022/01/24 11:36:55;;;;;;;10.75;6.55;;;;;;;2.26;88.15;101051.81;4983073;28;20042;-59
2022/01/24 11:39:23;;;;;;;8.85;6.85;;;;;;;2.48;88.42;101051.44;4990417;28;20389;-60
2022/01/24 11:41:49;;;;;;;12.60;9.02;;;;;;;2.53;87.55;101053.66;4989887;28;20046;-59
2022/01/24 11:44:18;;;;;;;10.32;7.55;;;;;;;2.49;88.30;101057.56;4991883;28;20549;-60
2022/01/24 11:46:55;;;;;;;11.88;8.43;;;;;;;2.68;87.42;101052.19;4981844;28;20042;-59
2022/01/24 11:49:24;;;;;;;9.35;7.22;;;;;;;2.66;87.18;101043.56;4984927;28;20040;-59
2022/01/24 11:51:51;;;;;;;9.75;7.20;;;;;;;2.59;87.65;101037.19;4990007;28;20050;-59
2022/01/24 11:57:16;;;;;;;10.15;6.43;;;;;;;2.72;87.72;101032.41;4986655;28;20529;-60
2022/01/24 11:59:42;;;;;;;15.15;7.30;;;;;;;2.86;87.54;101038.16;4990087;28;20129;-60
2022/01/24 12:02:09;;;;;;;8.88;6.15;;;;;;;2.79;86.94;101037.91;4970409;28;20057;-59
2022/01/24 12:04:56;;;;;;;9.50;7.05;;;;;;;2.86;87.65;101035.53;4983396;28;20033;-59
2022/01/24 12:07:31;;;;;;;9.32;6.78;;;;;;;2.78;86.82;101030.97;4996181;28;20112;-60
2022/01/24 12:13:00;;;;;;;10.15;7.18;;;;;;;3.03;86.15;101032.06;4984584;28;20047;-61
2022/01/24 12:15:40;;;;;;;11.90;6.85;;;;;;;2.49;87.48;101033.75;4985407;28;20112;-59
2022/01/24 12:18:16;;;;;;;11.35;7.55;;;;;;;2.39;87.84;101025.84;4987115;28;21004;-59
2022/01/24 12:20:42;;;;;;;10.90;6.78;;;;;;;2.40;87.54;101016.06;5000940;28;20448;-59
2022/01/24 12:23:16;;;;;;;8.80;7.30;;;;;;;2.57;87.08;101020.59;4988386;28;20034;-60
2022/01/24 12:25:58;;;;;;;10.18;7.78;;;;;;;2.70;86.97;101015.81;4995112;28;20520;-59
2022/01/24 12:28:25;;;;;;;12.25;8.98;;;;;;;2.67;87.09;101024.06;4989026;28;20088;-61
2022/01/24 12:31:00;;;;;;;11.63;8.48;;;;;;;2.76;86.69;101020.50;4989073;28;20035;-59
2022/01/24 12:33:36;;;;;;;10.23;7.50;;;;;;;2.78;87.25;101015.91;5000132;28;20487;-62
2022/01/24 12:36:09;;;;;;;11.00;8.05;;;;;;;2.56;87.16;101016.31;4990992;28;20042;-62
2022/01/24 12:38:46;;;;;;;9.07;7.03;;;;;;;2.70;87.53;101021.13;4995009;28;20053;-59
2022/01/24 12:41:26;;;;;;;12.10;6.80;;;;;;;2.56;87.51;101016.31;4991584;28;20047;-59
2022/01/24 12:44:12;;;;;;;10.85;7.47;;;;;;;2.68;87.32;101009.84;4998267;28;20144;-59
2022/01/24 12:46:37;;;;;;;13.85;7.45;;;;;;;2.71;87.11;101006.88;4990654;28;20065;-61
2022/01/24 12:49:06;;;;;;;9.50;7.15;;;;;;;2.73;87.14;101012.03;4993361;28;20034;-61
2022/01/24 12:51:35;;;;;;;11.80;6.60;;;;;;;2.67;86.96;101017.91;4984775;28;20066;-61
2022/01/24 12:54:02;;;;;;;11.15;7.90;;;;;;;2.68;87.20;101014.31;4974061;28;20124;-61
2022/01/24 12:56:29;;;;;;;11.32;6.47;;;;;;;2.75;87.27;101018.84;4980597;28;20125;-61
2022/01/24 12:58:54;;;;;;;10.60;7.95;;;;;;;2.59;87.21;101018.66;4991735;28;20035;-60
2022/01/24 13:01:22;;;;;;;10.68;7.25;;;;;;;2.67;87.07;101015.25;4987198;28;20126;-60
2022/01/24 13:04:02;;;;;;;13.70;7.28;;;;;;;2.89;88.25;101014.84;4989088;28;20018;-61
2022/01/24 13:06:29;;;;;;;11.88;8.07;;;;;;;2.83;87.65;101012.00;4987220;28;20042;-59
2022/01/24 13:08:58;;;;;;;11.68;7.82;;;;;;;2.90;87.25;101005.13;4993361;28;20117;-59
2022/01/24 13:11:24;;;;;;;10.27;7.47;;;;;;;2.78;87.23;101015.91;4989283;28;20046;-59